createdAt,value
2019-06-27T00:00:15.854Z,31.0
2019-06-27T00:03:15.172Z,30.9
2019-06-27T00:06:16.890Z,30.8
2019-06-27T00:09:15.517Z,30.7
2019-06-27T00:12:15.733Z,30.7
2019-06-27T00:15:15.598Z,30.6
2019-06-27T00:18:15.094Z,30.5
2019-06-27T00:21:15.688Z,30.4
2019-06-27T00:24:15.250Z,30.4
2019-06-27T00:27:15.864Z,30.3
2019-06-27T00:30:15.307Z,30.3
2019-06-27T00:33:14.892Z,30.2
2019-06-27T00:36:15.580Z,30.2
2019-06-27T00:39:15.308Z,30.2
2019-06-27T00:42:15.780Z,30.2
2019-06-27T00:45:15.252Z,30.1
2019-06-27T00:48:15.764Z,30.1
2019-06-27T00:51:15.315Z,30.1
2019-06-27T00:54:16.046Z,30.1
2019-06-27T00:57:15.617Z,30.0
2019-06-27T01:00:15.242Z,30.0
2019-06-27T01:03:16.098Z,30.0
2019-06-27T01:06:15.021Z,29.9
2019-06-27T01:09:15.474Z,29.9
2019-06-27T01:12:15.776Z,29.9
2019-06-27T01:15:15.389Z,29.9
2019-06-27T01:18:15.120Z,29.9
2019-06-27T01:21:15.596Z,29.8
2019-06-27T01:24:15.671Z,29.8
2019-06-27T01:27:29.191Z,29.7
2019-06-27T01:30:16.129Z,29.7
2019-06-27T01:33:14.963Z,29.7
2019-06-27T01:36:15.350Z,29.6
2019-06-27T01:39:14.841Z,29.6
2019-06-27T01:42:15.389Z,29.6
2019-06-27T01:45:15.871Z,29.6
2019-06-27T01:48:15.896Z,29.5
2019-06-27T01:51:15.670Z,29.5
2019-06-27T01:54:15.225Z,29.5
2019-06-27T01:57:15.683Z,29.5
2019-06-27T02:00:15.724Z,29.5
2019-06-27T02:03:15.892Z,29.4
2019-06-27T02:06:15.572Z,29.4
2019-06-27T02:09:16.006Z,29.3
2019-06-27T02:12:15.911Z,29.3
2019-06-27T02:15:15.306Z,29.3
2019-06-27T02:18:15.037Z,29.3
2019-06-27T02:21:15.441Z,29.2
2019-06-27T02:24:15.163Z,29.2
2019-06-27T02:27:14.955Z,29.1
2019-06-27T02:30:15.852Z,29.1
2019-06-27T02:33:15.657Z,29.1
2019-06-27T02:36:15.464Z,29.0
2019-06-27T02:39:15.475Z,29.0
2019-06-27T02:42:15.202Z,28.9
2019-06-27T02:45:15.858Z,28.7
2019-06-27T02:48:15.483Z,28.4
2019-06-27T02:51:15.849Z,28.3
2019-06-27T02:54:15.419Z,28.3
2019-06-27T02:57:14.901Z,28.3
2019-06-27T03:00:15.578Z,28.3
2019-06-27T03:03:15.157Z,28.4
2019-06-27T03:06:15.876Z,28.4
2019-06-27T03:09:15.510Z,28.4
2019-06-27T03:12:14.950Z,28.4
2019-06-27T03:15:16.148Z,28.4
2019-06-27T03:18:15.849Z,28.4
2019-06-27T03:21:15.746Z,28.4
2019-06-27T03:24:15.628Z,28.4
2019-06-27T03:27:15.901Z,28.4
2019-06-27T03:30:15.538Z,28.3
2019-06-27T03:33:15.572Z,28.4
2019-06-27T03:36:15.308Z,28.4
2019-06-27T03:39:16.034Z,28.3
2019-06-27T03:42:14.996Z,28.3
2019-06-27T03:45:16.385Z,28.3
2019-06-27T03:48:15.043Z,28.3
2019-06-27T03:51:15.538Z,28.3
2019-06-27T03:54:15.569Z,28.3
2019-06-27T03:57:15.154Z,28.3
2019-06-27T04:00:15.722Z,28.3
2019-06-27T04:03:14.947Z,28.3
2019-06-27T04:06:15.831Z,28.4
2019-06-27T04:09:15.322Z,28.3
2019-06-27T04:12:15.044Z,28.3
2019-06-27T04:15:15.528Z,28.3
2019-06-27T04:18:15.196Z,28.2
2019-06-27T04:21:15.956Z,28.2
2019-06-27T04:24:15.521Z,28.2
2019-06-27T04:27:15.575Z,28.2
2019-06-27T04:30:15.112Z,28.2
2019-06-27T04:33:15.879Z,28.2
2019-06-27T04:36:15.213Z,28.4
2019-06-27T04:39:15.817Z,28.2
2019-06-27T04:42:15.385Z,28.2
2019-06-27T04:45:15.050Z,28.2
2019-06-27T04:48:15.563Z,28.3
2019-06-27T04:51:15.245Z,28.3
2019-06-27T04:54:15.841Z,28.4
2019-06-27T04:57:15.405Z,28.6
2019-06-27T05:00:15.506Z,28.7
2019-06-27T05:03:15.091Z,28.7
2019-06-27T05:06:15.067Z,28.8
2019-06-27T05:09:15.683Z,29.0
2019-06-27T05:12:15.281Z,29.1
2019-06-27T05:15:14.980Z,29.6
2019-06-27T05:18:15.711Z,30.6
2019-06-27T05:21:15.207Z,31.6
2019-06-27T05:24:15.757Z,32.5
2019-06-27T05:27:15.324Z,33.7
2019-06-27T05:30:15.803Z,34.7
2019-06-27T05:33:15.827Z,35.5
2019-06-27T05:36:15.926Z,35.6
2019-06-27T05:39:15.212Z,35.9
2019-06-27T05:42:15.896Z,37.1
2019-06-27T05:45:15.428Z,38.7
2019-06-27T05:48:15.930Z,39.9
2019-06-27T05:51:15.582Z,41.3
2019-06-27T05:54:16.308Z,42.7
2019-06-27T05:57:16.014Z,43.3
2019-06-27T06:00:27.283Z,43.6
2019-06-27T06:03:16.005Z,43.3
2019-06-27T06:06:15.755Z,43.1
2019-06-27T06:09:15.532Z,42.4
2019-06-27T06:12:16.095Z,42.5
2019-06-27T06:15:15.593Z,41.5
2019-06-27T06:18:15.426Z,40.7
2019-06-27T06:21:16.019Z,40.2
2019-06-27T06:24:15.561Z,40.1
2019-06-27T06:27:16.116Z,41.0
2019-06-27T06:30:16.149Z,42.2
2019-06-27T06:33:15.601Z,43.5
2019-06-27T06:36:16.350Z,43.2
2019-06-27T06:39:16.299Z,43.8
2019-06-27T06:42:15.933Z,45.0
2019-06-27T06:45:15.607Z,45.9
2019-06-27T06:48:15.407Z,47.2
2019-06-27T06:51:16.142Z,47.6
2019-06-27T06:54:15.895Z,47.1
2019-06-27T06:57:15.736Z,46.4
2019-06-27T07:00:15.362Z,45.3
2019-06-27T07:03:15.571Z,43.6
2019-06-27T07:06:16.731Z,43.0
2019-06-27T07:09:15.330Z,42.3
2019-06-27T07:12:16.209Z,43.1
2019-06-27T07:15:15.816Z,44.4
2019-06-27T07:18:16.113Z,46.3
2019-06-27T07:21:16.303Z,48.2
2019-06-27T07:24:16.252Z,49.6
2019-06-27T07:27:15.427Z,50.8
2019-06-27T07:30:16.249Z,50.7
2019-06-27T07:33:15.900Z,49.9
2019-06-27T07:36:16.135Z,49.7
2019-06-27T07:39:15.920Z,49.8
2019-06-27T07:42:16.123Z,50.4
2019-06-27T07:45:15.752Z,51.5
2019-06-27T07:48:25.542Z,52.1
2019-06-27T07:51:15.685Z,52.8
2019-06-27T07:54:15.916Z,53.9
2019-06-27T07:57:15.440Z,55.3
2019-06-27T08:00:15.916Z,56.0
2019-06-27T08:06:20.484Z,57.7
2019-06-27T08:18:16.526Z,58.8
2019-06-27T08:24:26.123Z,58.9
2019-06-27T08:33:26.473Z,58.4
2019-06-27T08:36:35.055Z,58.7
2019-06-27T08:42:16.310Z,58.5
2019-06-27T08:45:39.829Z,57.5
2019-06-27T08:48:16.061Z,57.3
2019-06-27T08:51:24.476Z,57.8
2019-06-27T08:54:15.843Z,58.1
2019-06-27T08:57:16.054Z,58.6
2019-06-27T09:00:16.296Z,58.8
2019-06-27T09:03:15.934Z,59.5
2019-06-27T09:06:16.334Z,59.8
2019-06-27T09:09:16.221Z,60.0
2019-06-27T09:12:21.328Z,60.1
2019-06-27T09:15:15.906Z,59.8
2019-06-27T09:18:16.032Z,59.5
2019-06-27T09:21:17.352Z,58.8
2019-06-27T09:24:15.486Z,59.0
2019-06-27T09:27:16.132Z,59.7
2019-06-27T09:30:16.282Z,60.1
2019-06-27T09:33:16.168Z,59.0
2019-06-27T09:36:15.475Z,57.8
2019-06-27T09:39:27.074Z,57.4
2019-06-27T09:42:18.912Z,57.5
2019-06-27T09:45:19.393Z,57.4
2019-06-27T09:48:15.696Z,56.0
2019-06-27T09:51:15.607Z,54.7
2019-06-27T09:54:16.168Z,54.5
2019-06-27T09:57:16.559Z,54.4
2019-06-27T10:00:15.983Z,53.8
2019-06-27T10:06:15.894Z,52.0
2019-06-27T10:09:16.343Z,50.6
2019-06-27T10:12:17.180Z,49.8
2019-06-27T10:15:15.912Z,49.6
2019-06-27T10:18:20.932Z,49.0
2019-06-27T10:21:16.412Z,48.4
2019-06-27T10:24:15.353Z,48.6
2019-06-27T10:27:15.835Z,48.9
2019-06-27T10:30:15.892Z,48.2
2019-06-27T10:33:16.046Z,47.8
2019-06-27T10:36:21.304Z,47.8
2019-06-27T10:39:25.998Z,48.3
2019-06-27T10:42:16.238Z,47.9
2019-06-27T10:45:16.353Z,47.4
2019-06-27T10:48:15.494Z,47.0
2019-06-27T10:51:15.972Z,46.7
2019-06-27T10:54:16.269Z,46.7
2019-06-27T10:57:20.673Z,46.7
2019-06-27T11:00:15.872Z,47.0
2019-06-27T11:03:16.541Z,46.6
2019-06-27T11:06:21.320Z,46.3
2019-06-27T11:09:15.435Z,46.4
2019-06-27T11:12:15.721Z,46.1
2019-06-27T11:15:15.599Z,46.1
2019-06-27T11:18:16.379Z,45.5
2019-06-27T11:21:15.510Z,45.3
2019-06-27T11:24:16.270Z,45.6
2019-06-27T11:27:31.347Z,46.3
2019-06-27T11:30:15.653Z,47.2
2019-06-27T11:33:31.367Z,48.1
2019-06-27T11:36:16.186Z,47.6
2019-06-27T11:39:15.434Z,46.1
2019-06-27T11:42:16.112Z,45.1
2019-06-27T11:45:21.392Z,44.3
2019-06-27T11:48:21.538Z,43.8
2019-06-27T11:51:26.284Z,43.6
2019-06-27T11:54:15.671Z,43.1
2019-06-27T11:57:15.779Z,42.9
2019-06-27T12:00:15.753Z,42.9
2019-06-27T12:03:16.226Z,42.8
2019-06-27T12:06:15.816Z,42.5
2019-06-27T12:09:15.904Z,42.1
2019-06-27T12:12:20.521Z,41.3
2019-06-27T12:15:15.524Z,40.9
2019-06-27T12:18:16.171Z,40.9
2019-06-27T12:21:16.034Z,40.7
2019-06-27T12:24:15.873Z,40.9
2019-06-27T12:27:15.788Z,40.9
2019-06-27T12:30:15.987Z,40.9
2019-06-27T12:33:16.023Z,40.5
2019-06-27T12:36:16.769Z,40.2
2019-06-27T12:39:16.316Z,40.2
2019-06-27T12:42:31.556Z,40.0
2019-06-27T12:45:26.411Z,39.9
2019-06-27T12:48:16.222Z,39.5
2019-06-27T12:51:15.887Z,39.3
2019-06-27T12:54:16.332Z,39.0
2019-06-27T12:57:15.565Z,39.1
2019-06-27T13:00:15.506Z,39.1
2019-06-27T13:03:15.979Z,39.2
2019-06-27T13:06:16.045Z,39.3
2019-06-27T13:09:16.183Z,39.0
2019-06-27T13:12:17.715Z,38.7
2019-06-27T13:15:15.349Z,38.8
2019-06-27T13:18:16.283Z,38.9
2019-06-27T13:21:16.187Z,38.9
2019-06-27T13:24:15.557Z,38.8
2019-06-27T13:27:16.177Z,38.8
2019-06-27T13:30:15.856Z,39.1
2019-06-27T13:33:15.875Z,38.9
2019-06-27T13:36:15.941Z,38.6
2019-06-27T13:39:15.625Z,38.4
2019-06-27T13:42:16.115Z,38.7
2019-06-27T13:45:15.453Z,38.9
2019-06-27T13:48:16.016Z,38.7
2019-06-27T13:51:17.035Z,38.7
2019-06-27T13:54:15.923Z,38.8
2019-06-27T13:57:15.993Z,38.7
2019-06-27T14:00:15.927Z,38.7
2019-06-27T14:03:15.818Z,38.4
2019-06-27T14:06:15.764Z,38.2
2019-06-27T14:09:22.776Z,38.0
2019-06-27T14:12:16.328Z,38.2
2019-06-27T14:15:16.187Z,38.2
2019-06-27T14:18:19.172Z,38.3
2019-06-27T14:21:16.021Z,38.2
2019-06-27T14:24:17.635Z,38.1
2019-06-27T14:27:15.582Z,38.0
2019-06-27T14:30:16.836Z,38.0
2019-06-27T14:33:15.844Z,37.8
2019-06-27T14:36:15.752Z,37.8
2019-06-27T14:39:16.144Z,37.8
2019-06-27T14:42:15.967Z,37.8
2019-06-27T14:45:15.632Z,37.8
2019-06-27T14:48:15.429Z,37.8
2019-06-27T14:51:15.588Z,37.7
2019-06-27T14:54:16.134Z,37.6
2019-06-27T14:57:16.091Z,37.6
2019-06-27T15:00:15.636Z,37.7
2019-06-27T15:03:16.151Z,37.7
2019-06-27T15:06:16.195Z,37.5
2019-06-27T15:09:16.548Z,37.4
2019-06-27T15:12:15.846Z,37.2
2019-06-27T15:15:15.679Z,37.1
2019-06-27T15:18:16.844Z,37.2
2019-06-27T15:21:16.208Z,37.1
2019-06-27T15:24:21.168Z,37.1
2019-06-27T15:27:15.465Z,36.8
2019-06-27T15:30:16.264Z,36.6
2019-06-27T15:33:15.594Z,36.6
2019-06-27T15:36:15.487Z,36.5
2019-06-27T15:39:15.736Z,36.4
2019-06-27T15:42:15.587Z,36.2
2019-06-27T15:45:15.957Z,36.2
2019-06-27T15:48:15.671Z,36.0
2019-06-27T15:51:15.806Z,35.7
2019-06-27T15:54:15.881Z,35.7
2019-06-27T15:57:15.662Z,35.7
2019-06-27T16:00:15.627Z,35.6
2019-06-27T16:03:15.874Z,35.4
2019-06-27T16:06:15.917Z,35.5
2019-06-27T16:09:15.936Z,35.3
2019-06-27T16:12:15.463Z,35.2
2019-06-27T16:15:15.342Z,35.1
2019-06-27T16:18:15.805Z,35.0
2019-06-27T16:21:15.866Z,34.9
2019-06-27T16:24:20.800Z,34.9
2019-06-27T16:27:15.918Z,34.8
2019-06-27T16:30:15.768Z,34.8
2019-06-27T16:33:15.894Z,34.6
2019-06-27T16:42:19.613Z,34.1
2019-06-27T16:54:26.009Z,33.7
2019-06-27T16:57:16.537Z,33.7
2019-06-27T17:00:15.540Z,33.6
2019-06-27T17:06:24.019Z,33.5
2019-06-27T17:12:25.811Z,33.4
2019-06-27T17:12:44.017Z,33.5
2019-06-27T17:15:16.081Z,33.4
2019-06-27T17:21:16.680Z,33.3
2019-06-27T17:27:19.760Z,33.2
2019-06-27T17:30:20.585Z,33.2
2019-06-27T17:39:15.736Z,33.1
2019-06-27T17:42:15.778Z,33.0
2019-06-27T17:45:16.250Z,33.0
2019-06-27T17:57:15.818Z,32.9
2019-06-27T18:00:15.751Z,32.8
2019-06-27T18:03:15.625Z,32.8
2019-06-27T18:09:26.083Z,32.7
2019-06-27T18:12:16.217Z,32.7
2019-06-27T18:27:15.926Z,32.4
2019-06-27T18:30:15.629Z,32.3
2019-06-27T18:36:31.816Z,32.2
2019-06-27T18:39:15.997Z,32.1
2019-06-27T18:42:31.069Z,32.0
2019-06-27T18:51:27.712Z,31.6
2019-06-27T18:57:21.363Z,31.3
2019-06-27T19:00:15.730Z,31.1
2019-06-27T19:06:15.232Z,30.8
2019-06-27T19:09:16.505Z,30.7
2019-06-27T19:12:19.113Z,30.6
2019-06-27T19:18:20.040Z,30.3
2019-06-27T19:21:15.673Z,30.2
2019-06-27T19:27:15.274Z,30.0
2019-06-27T19:30:15.184Z,29.9
2019-06-27T19:33:20.263Z,29.8
2019-06-27T19:36:15.227Z,29.8
2019-06-27T19:39:15.385Z,29.7
2019-06-27T19:42:15.241Z,29.6
2019-06-27T19:45:15.422Z,29.6
2019-06-27T20:06:15.301Z,29.2
2019-06-27T20:09:15.181Z,29.1
2019-06-27T20:12:15.013Z,29.1
2019-06-27T20:15:21.105Z,29.0
2019-06-27T20:18:15.045Z,29.0
2019-06-27T20:21:15.717Z,28.9
2019-06-27T20:24:15.391Z,28.9
2019-06-27T20:27:15.047Z,28.8
2019-06-27T20:30:15.611Z,28.8
2019-06-27T20:33:15.182Z,28.7
2019-06-27T20:36:15.752Z,28.6
2019-06-27T20:39:15.689Z,28.5
2019-06-27T20:42:15.296Z,28.5
2019-06-27T20:45:15.467Z,28.5
2019-06-27T20:48:15.572Z,28.4
2019-06-27T21:06:15.091Z,28.1
2019-06-27T21:09:14.951Z,28.1
2019-06-27T21:12:15.807Z,28.1
2019-06-27T21:15:15.244Z,28.0
2019-06-27T21:18:15.891Z,28.0
2019-06-27T21:21:15.086Z,28.0
2019-06-27T21:24:15.577Z,28.0
2019-06-27T21:27:15.604Z,27.9
2019-06-27T21:30:15.142Z,27.9
2019-06-27T21:33:17.069Z,27.8
2019-06-27T21:36:15.871Z,27.7
2019-06-27T21:39:15.563Z,27.7
2019-06-27T21:42:15.263Z,27.6
2019-06-27T21:45:15.881Z,27.5
2019-06-27T21:48:15.477Z,27.5
2019-06-27T21:51:15.510Z,27.4
2019-06-27T21:54:15.384Z,27.4
2019-06-27T21:57:14.970Z,27.4
2019-06-27T22:00:15.685Z,27.3
2019-06-27T22:12:15.154Z,27.2
2019-06-27T22:18:15.290Z,27.2
2019-06-27T22:21:15.002Z,27.2
2019-06-27T22:24:15.533Z,27.1
2019-06-27T22:27:15.394Z,27.1
2019-06-27T22:30:14.934Z,27.1
2019-06-27T22:33:15.674Z,27.0
2019-06-27T22:36:15.198Z,27.0
2019-06-27T22:39:16.031Z,27.0
2019-06-27T22:42:15.468Z,27.0
2019-06-27T22:45:15.600Z,27.0
2019-06-27T22:48:15.702Z,27.0
2019-06-27T22:51:15.797Z,27.0
2019-06-27T22:54:15.036Z,27.0
2019-06-27T22:57:15.589Z,26.9
2019-06-27T23:00:15.185Z,26.9
2019-06-27T23:03:15.794Z,26.9
2019-06-27T23:06:15.601Z,26.8
2019-06-27T23:09:15.250Z,26.8
2019-06-27T23:12:15.880Z,26.7
2019-06-27T23:15:15.663Z,26.7
2019-06-27T23:18:15.256Z,26.6
2019-06-27T23:21:15.701Z,26.5
2019-06-27T23:24:15.097Z,26.4
2019-06-27T23:27:15.580Z,26.2
2019-06-27T23:30:15.185Z,26.2
2019-06-27T23:33:15.601Z,26.1
2019-06-27T23:36:15.080Z,26.0
2019-06-27T23:39:15.626Z,26.0
2019-06-27T23:42:15.254Z,26.0
2019-06-27T23:45:15.850Z,25.9
2019-06-27T23:48:15.368Z,25.9
2019-06-27T23:51:15.890Z,25.9
2019-06-27T23:54:20.561Z,25.9
2019-06-27T23:57:15.094Z,25.9
